createdAt,value
2023-04-08T00:00:38.539Z,20.23
2023-04-08T00:03:08.244Z,21.13
2023-04-08T00:05:36.586Z,21.43
2023-04-08T00:08:05.304Z,19.13
2023-04-08T00:10:33.457Z,20.93
2023-04-08T00:13:02.982Z,22.40
2023-04-08T00:15:52.453Z,19.37
2023-04-08T00:18:24.974Z,22.23
2023-04-08T00:20:54.300Z,25.23
2023-04-08T00:23:24.804Z,22.93
2023-04-08T00:25:52.885Z,23.27
2023-04-08T00:28:21.590Z,22.80
2023-04-08T00:30:52.567Z,23.47
2023-04-08T00:33:22.266Z,25.90
2023-04-08T00:35:51.152Z,24.67
2023-04-08T00:38:19.370Z,24.17
2023-04-08T00:40:49.015Z,22.03
2023-04-08T00:43:21.334Z,21.50
2023-04-08T00:45:49.856Z,25.87
2023-04-08T00:48:20.570Z,24.23
2023-04-08T00:50:51.724Z,26.33
2023-04-08T00:53:22.207Z,25.53
2023-04-08T00:55:51.766Z,28.07
2023-04-08T00:58:20.165Z,25.57
2023-04-08T01:00:56.721Z,25.27
2023-04-08T01:03:31.847Z,27.70
2023-04-08T01:06:11.090Z,25.63
2023-04-08T01:08:42.840Z,29.10
2023-04-08T01:11:13.383Z,29.70
2023-04-08T01:13:46.294Z,28.37
2023-04-08T01:16:17.723Z,28.00
2023-04-08T01:18:49.925Z,27.63
2023-04-08T01:21:23.245Z,30.40
2023-04-08T01:24:03.198Z,28.43
2023-04-08T01:26:33.082Z,27.43
2023-04-08T01:29:03.098Z,26.73
2023-04-08T01:31:32.930Z,27.13
2023-04-08T01:34:02.965Z,26.17
2023-04-08T01:36:33.787Z,26.87
2023-04-08T01:39:03.191Z,28.87
2023-04-08T01:41:35.271Z,30.00
2023-04-08T01:44:05.172Z,30.70
2023-04-08T01:46:34.421Z,29.97
2023-04-08T01:49:03.390Z,32.70
2023-04-08T01:51:33.217Z,27.53
2023-04-08T01:54:01.441Z,31.53
2023-04-08T01:56:34.232Z,27.73
2023-04-08T01:59:03.868Z,27.30
2023-04-08T02:01:35.373Z,32.20
2023-04-08T02:04:05.493Z,31.20
2023-04-08T02:06:35.141Z,30.40
2023-04-08T02:09:04.212Z,32.30
2023-04-08T02:11:38.662Z,31.40
2023-04-08T02:14:27.557Z,32.17
2023-04-08T02:17:04.552Z,32.33
2023-04-08T02:19:41.813Z,30.03
2023-04-08T02:22:18.899Z,33.07
2023-04-08T02:24:49.248Z,37.17
2023-04-08T02:27:23.537Z,34.37
2023-04-08T02:29:53.525Z,32.00
2023-04-08T02:32:22.921Z,29.90
2023-04-08T02:34:52.181Z,30.77
2023-04-08T02:37:20.562Z,30.67
2023-04-08T02:39:55.679Z,32.90
2023-04-08T02:42:25.281Z,32.37
2023-04-08T02:44:53.974Z,32.27
2023-04-08T02:47:22.132Z,34.67
2023-04-08T02:49:53.260Z,33.17
2023-04-08T02:52:22.567Z,30.10
2023-04-08T02:55:11.662Z,33.53
2023-04-08T02:57:43.703Z,38.37
2023-04-08T03:00:13.100Z,36.13
2023-04-08T03:02:41.532Z,34.33
2023-04-08T03:05:10.705Z,34.57
2023-04-08T03:07:39.670Z,36.23
2023-04-08T03:10:09.403Z,34.20
2023-04-08T03:12:38.258Z,39.63
2023-04-08T03:15:08.898Z,35.10
2023-04-08T03:17:36.972Z,34.60
2023-04-08T03:20:06.098Z,37.93
2023-04-08T03:22:35.045Z,36.40
2023-04-08T03:25:05.905Z,35.73
2023-04-08T03:27:34.257Z,34.63
2023-04-08T03:30:02.333Z,37.53
2023-04-08T03:32:34.729Z,33.23
2023-04-08T03:35:22.806Z,36.53
2023-04-08T03:37:51.477Z,36.80
2023-04-08T03:40:19.915Z,36.27
2023-04-08T03:42:48.311Z,38.93
2023-04-08T03:45:16.732Z,35.40
2023-04-08T03:47:47.350Z,34.83
2023-04-08T03:50:17.976Z,37.17
2023-04-08T03:52:46.279Z,38.70
2023-04-08T03:55:14.715Z,37.23
2023-04-08T03:57:42.857Z,37.40
2023-04-08T04:00:11.998Z,36.73
2023-04-08T04:02:40.500Z,36.77
2023-04-08T04:05:10.734Z,43.43
2023-04-08T04:07:38.850Z,37.77
2023-04-08T04:10:07.955Z,39.13
2023-04-08T04:12:36.117Z,42.13
2023-04-08T04:15:04.412Z,38.43
2023-04-08T04:17:35.798Z,42.70
2023-04-08T04:20:06.388Z,39.63
2023-04-08T04:22:35.952Z,39.43
2023-04-08T04:25:04.102Z,35.90
2023-04-08T04:27:32.690Z,40.90
2023-04-08T04:30:04.777Z,37.53
2023-04-08T04:32:33.397Z,38.77
2023-04-08T04:35:21.600Z,33.77
2023-04-08T04:37:51.896Z,37.37
2023-04-08T04:40:20.289Z,37.13
2023-04-08T04:43:08.514Z,38.60
2023-04-08T04:45:36.584Z,40.90
2023-04-08T04:48:06.176Z,40.20
2023-04-08T04:50:35.597Z,42.13
2023-04-08T04:53:05.374Z,38.63
2023-04-08T04:55:33.475Z,41.63
2023-04-08T04:58:06.499Z,42.13
2023-04-08T05:00:35.282Z,42.03
2023-04-08T05:03:03.777Z,42.53
2023-04-08T05:05:32.365Z,42.30
2023-04-08T05:08:03.082Z,46.27
2023-04-08T05:10:33.204Z,40.57
2023-04-08T05:13:03.579Z,37.90
2023-04-08T05:15:34.498Z,42.30
2023-04-08T05:18:22.510Z,43.03
2023-04-08T05:20:50.749Z,40.60
2023-04-08T05:23:19.094Z,42.43
2023-04-08T05:25:48.455Z,44.20
2023-04-08T05:28:18.015Z,39.43
2023-04-08T05:30:50.599Z,43.50
2023-04-08T05:33:18.650Z,40.47
2023-04-08T05:35:47.258Z,37.70
2023-04-08T05:38:15.628Z,39.07
2023-04-08T05:40:43.582Z,42.03
2023-04-08T05:43:13.115Z,41.20
2023-04-08T05:45:41.372Z,39.03
2023-04-08T05:48:09.332Z,43.50
2023-04-08T05:50:37.399Z,41.30
2023-04-08T05:53:05.470Z,43.20
2023-04-08T05:55:33.816Z,40.57
2023-04-08T05:58:01.891Z,44.77
2023-04-08T06:00:31.422Z,42.50
2023-04-08T06:02:59.598Z,36.83
2023-04-08T06:05:27.836Z,40.10
2023-04-08T06:07:56.009Z,36.07
2023-04-08T06:10:24.300Z,39.10
2023-04-08T06:12:52.284Z,37.13
2023-04-08T06:15:21.258Z,36.43
2023-04-08T06:17:50.912Z,35.13
2023-04-08T06:20:19.030Z,35.70
2023-04-08T06:22:47.164Z,38.27
2023-04-08T06:25:15.186Z,36.17
2023-04-08T06:27:43.194Z,36.17
2023-04-08T06:30:11.821Z,38.50
2023-04-08T06:32:39.970Z,36.47
2023-04-08T06:35:10.044Z,40.27
2023-04-08T06:37:38.801Z,39.47
2023-04-08T06:40:08.344Z,38.83
2023-04-08T06:42:38.446Z,38.83
2023-04-08T06:45:07.731Z,39.00
2023-04-08T06:47:35.774Z,34.30
2023-04-08T06:50:03.808Z,37.77
2023-04-08T06:52:33.184Z,34.67
2023-04-08T06:55:01.222Z,37.87
2023-04-08T06:57:29.161Z,36.37
2023-04-08T06:59:57.441Z,40.53
2023-04-08T07:02:25.576Z,38.83
2023-04-08T07:04:53.626Z,41.03
2023-04-08T07:07:21.964Z,37.57
2023-04-08T07:09:51.450Z,34.30
2023-04-08T07:12:19.567Z,32.60
2023-04-08T07:14:47.685Z,36.50
2023-04-08T07:17:16.041Z,36.17
2023-04-08T07:19:44.199Z,35.73
2023-04-08T07:22:12.234Z,31.33
2023-04-08T07:24:43.450Z,30.90
2023-04-08T07:27:12.919Z,32.23
2023-04-08T07:29:40.960Z,34.90
2023-04-08T07:32:09.114Z,34.53
2023-04-08T07:34:37.373Z,34.53
2023-04-08T07:37:05.704Z,34.57
2023-04-08T07:39:33.753Z,34.13
2023-04-08T07:42:01.977Z,36.97
2023-04-08T07:44:31.575Z,35.77
2023-04-08T07:46:59.806Z,33.13
2023-04-08T07:49:27.956Z,34.80
2023-04-08T07:51:55.958Z,33.77
2023-04-08T07:54:24.007Z,38.07
2023-04-08T07:56:52.237Z,39.13
2023-04-08T07:59:20.220Z,37.23
2023-04-08T08:01:49.581Z,36.63
2023-04-08T08:04:18.336Z,39.57
2023-04-08T08:06:47.553Z,40.07
2023-04-08T08:09:15.720Z,34.70
2023-04-08T08:11:43.856Z,39.27
2023-04-08T08:14:13.834Z,38.00
2023-04-08T08:16:42.555Z,40.40
2023-04-08T08:19:13.942Z,39.60
2023-04-08T08:21:42.216Z,40.30
2023-04-08T08:24:10.193Z,38.90
2023-04-08T08:26:38.315Z,38.33
2023-04-08T08:29:08.943Z,40.60
2023-04-08T08:31:37.057Z,37.03
2023-04-08T08:34:05.152Z,38.60
2023-04-08T08:36:34.968Z,36.77
2023-04-08T08:39:03.115Z,37.87
2023-04-08T08:41:35.418Z,37.23
2023-04-08T08:44:04.382Z,33.83
2023-04-08T08:46:32.634Z,38.87
2023-04-08T08:49:00.906Z,35.77
2023-04-08T08:51:29.671Z,37.80
2023-04-08T08:53:59.100Z,36.73
2023-04-08T08:56:28.097Z,37.30
2023-04-08T08:58:56.136Z,36.60
2023-04-08T09:01:34.671Z,35.43
2023-04-08T09:04:15.822Z,37.20
2023-04-08T09:06:45.155Z,36.20
2023-04-08T09:09:15.058Z,36.87
2023-04-08T09:11:45.189Z,32.50
2023-04-08T09:14:26.283Z,36.03
2023-04-08T09:16:56.372Z,32.20
2023-04-08T09:19:24.377Z,32.17
2023-04-08T09:22:08.549Z,35.00
2023-04-08T09:24:39.542Z,30.63
2023-04-08T09:27:07.640Z,30.50
2023-04-08T09:29:39.656Z,31.93
2023-04-08T09:32:08.163Z,29.07
2023-04-08T09:34:36.697Z,29.40
2023-04-08T09:37:04.694Z,28.00
2023-04-08T09:39:32.601Z,34.43
2023-04-08T09:42:03.833Z,31.37
2023-04-08T09:44:34.606Z,32.37
2023-04-08T09:47:10.092Z,32.57
2023-04-08T09:49:43.416Z,36.27
2023-04-08T09:52:14.814Z,34.57
2023-04-08T09:54:49.203Z,31.93
2023-04-08T09:57:26.594Z,29.03
2023-04-08T10:00:08.968Z,29.80
2023-04-08T10:02:46.821Z,27.27
2023-04-08T10:05:16.133Z,25.70
2023-04-08T10:07:44.195Z,24.30
2023-04-08T10:10:12.474Z,22.87
2023-04-08T10:12:42.088Z,22.87
2023-04-08T10:15:30.486Z,23.00
2023-04-08T10:18:37.814Z,21.77
2023-04-08T10:21:06.087Z,22.37
2023-04-08T10:23:56.815Z,20.43
2023-04-08T10:26:35.946Z,19.23
2023-04-08T10:29:42.762Z,21.50
2023-04-08T10:32:29.785Z,20.33
2023-04-08T10:34:58.153Z,22.97
2023-04-08T10:37:26.216Z,23.67
2023-04-08T10:39:55.828Z,21.60
2023-04-08T10:42:29.562Z,22.67
2023-04-08T10:45:03.066Z,22.63
2023-04-08T10:47:32.414Z,21.80
2023-04-08T10:50:00.930Z,22.20
2023-04-08T10:52:29.221Z,21.57
2023-04-08T10:54:57.255Z,22.10
2023-04-08T10:57:25.790Z,21.37
2023-04-08T10:59:53.738Z,22.20
2023-04-08T11:02:21.773Z,22.63
2023-04-08T11:04:51.348Z,22.50
2023-04-08T11:07:21.736Z,20.80
2023-04-08T11:09:50.789Z,19.87
2023-04-08T11:12:19.659Z,19.27
2023-04-08T11:14:49.593Z,18.50
2023-04-08T11:17:17.828Z,20.87
2023-04-08T11:19:45.886Z,20.53
2023-04-08T11:22:15.227Z,19.77
2023-04-08T11:24:44.151Z,19.97
2023-04-08T11:27:12.164Z,19.40
2023-04-08T11:29:40.912Z,18.23
2023-04-08T11:32:09.926Z,19.53
2023-04-08T11:34:41.770Z,21.10
2023-04-08T11:37:09.732Z,19.93
2023-04-08T11:39:44.395Z,17.77
2023-04-08T11:42:27.777Z,18.97
2023-04-08T11:44:55.817Z,18.07
2023-04-08T11:47:24.060Z,17.33
2023-04-08T11:49:52.104Z,16.03
2023-04-08T11:52:20.071Z,16.50
2023-04-08T11:54:50.090Z,15.23
2023-04-08T11:57:30.493Z,17.10
2023-04-08T11:59:58.547Z,16.40
2023-04-08T12:02:26.711Z,15.60
2023-04-08T12:04:54.765Z,15.27
2023-04-08T12:07:22.720Z,15.53
2023-04-08T12:09:51.967Z,16.93
2023-04-08T12:12:19.993Z,16.70
2023-04-08T12:14:47.935Z,18.43
2023-04-08T12:17:16.035Z,17.27
2023-04-08T12:19:44.053Z,15.70
2023-04-08T12:22:12.305Z,13.40
2023-04-08T12:24:40.338Z,14.37
2023-04-08T12:27:09.770Z,12.00
2023-04-08T12:29:37.724Z,14.70
2023-04-08T12:32:05.736Z,22.17
2023-04-08T12:34:34.213Z,15.57
2023-04-08T12:37:02.454Z,13.53
2023-04-08T12:39:30.468Z,13.23
2023-04-08T12:41:59.460Z,13.53
2023-04-08T12:44:28.921Z,13.93
2023-04-08T12:46:58.274Z,14.33
2023-04-08T12:49:28.020Z,12.27
2023-04-08T12:51:56.026Z,10.52
2023-04-08T12:54:23.909Z,14.33
2023-04-08T12:56:51.809Z,12.88
2023-04-08T12:59:19.876Z,13.23
2023-04-08T13:01:49.188Z,11.83
2023-04-08T13:04:17.178Z,14.33
2023-04-08T13:06:45.527Z,11.07
2023-04-08T13:09:15.080Z,12.70
2023-04-08T13:11:42.990Z,12.40
2023-04-08T13:14:11.174Z,12.37
2023-04-08T13:16:39.287Z,12.30
2023-04-08T13:19:08.635Z,12.47
2023-04-08T13:21:36.761Z,14.30
2023-04-08T13:24:05.068Z,11.50
2023-04-08T13:26:33.047Z,11.20
2023-04-08T13:29:01.395Z,11.83
2023-04-08T13:31:29.584Z,11.47
2023-04-08T13:33:58.355Z,10.77
2023-04-08T13:36:28.480Z,15.23
2023-04-08T13:38:56.658Z,13.73
2023-04-08T13:41:25.554Z,12.43
2023-04-08T13:43:53.727Z,14.93
2023-04-08T13:46:21.814Z,13.77
2023-04-08T13:48:50.315Z,12.68
2023-04-08T13:51:18.522Z,13.52
2023-04-08T13:53:47.991Z,14.07
2023-04-08T13:56:16.026Z,13.77
2023-04-08T13:58:46.172Z,13.35
2023-04-08T14:01:18.368Z,13.82
2023-04-08T14:03:46.562Z,11.10
2023-04-08T14:06:14.473Z,12.20
2023-04-08T14:08:42.901Z,12.00
2023-04-08T14:11:12.251Z,11.32
2023-04-08T14:13:40.361Z,11.25
2023-04-08T14:16:08.535Z,11.73
2023-04-08T14:18:36.616Z,13.45
2023-04-08T14:21:05.380Z,11.07
2023-04-08T14:23:33.345Z,11.57
2023-04-08T14:26:01.596Z,11.40
2023-04-08T14:28:30.941Z,10.50
2023-04-08T14:30:59.012Z,11.82
2023-04-08T14:33:27.196Z,10.38
2023-04-08T14:35:55.534Z,12.35
2023-04-08T14:38:23.442Z,12.10
2023-04-08T14:40:52.355Z,11.82
2023-04-08T14:43:20.624Z,10.80
2023-04-08T14:45:51.306Z,13.27
2023-04-08T14:48:19.542Z,11.43
2023-04-08T14:50:47.474Z,16.02
2023-04-08T14:53:15.496Z,13.05
2023-04-08T14:55:43.402Z,14.77
2023-04-08T14:58:11.387Z,13.00
2023-04-08T15:00:44.121Z,11.25
2023-04-08T15:03:13.588Z,12.50
2023-04-08T15:05:42.708Z,10.52
2023-04-08T15:08:10.847Z,9.77
2023-04-08T15:10:39.001Z,11.13
2023-04-08T15:13:07.292Z,12.25
2023-04-08T15:15:35.365Z,14.45
2023-04-08T15:18:03.421Z,13.65
2023-04-08T15:20:32.799Z,14.93
2023-04-08T15:23:00.724Z,11.68
2023-04-08T15:25:28.685Z,12.52
2023-04-08T15:27:57.282Z,12.63
2023-04-08T15:30:25.568Z,13.85
2023-04-08T15:32:55.602Z,10.60
2023-04-08T15:35:24.885Z,12.55
2023-04-08T15:37:54.252Z,13.10
2023-04-08T15:40:22.357Z,13.60
2023-04-08T15:42:50.593Z,11.80
2023-04-08T15:45:18.667Z,11.55
2023-04-08T15:47:48.664Z,12.18
2023-04-08T15:50:17.304Z,14.90
2023-04-08T15:52:45.577Z,14.85
2023-04-08T15:55:15.160Z,15.55
2023-04-08T15:57:43.190Z,15.18
2023-04-08T16:00:13.197Z,14.48
2023-04-08T16:02:42.516Z,14.02
2023-04-08T16:05:12.410Z,14.55
2023-04-08T16:07:42.038Z,16.45
2023-04-08T16:10:10.262Z,13.25
2023-04-08T16:12:39.679Z,13.25
2023-04-08T16:15:08.514Z,14.07
2023-04-08T16:17:36.501Z,13.13
2023-04-08T16:20:04.936Z,13.73
2023-04-08T16:22:32.950Z,12.07
2023-04-08T16:25:01.233Z,15.95
2023-04-08T16:27:29.221Z,13.65
2023-04-08T16:29:58.513Z,13.63
2023-04-08T16:32:26.793Z,14.38
2023-04-08T16:34:54.714Z,13.95
2023-04-08T16:37:22.615Z,14.30
2023-04-08T16:39:50.570Z,13.77
2023-04-08T16:42:19.110Z,15.77
2023-04-08T16:44:47.300Z,15.82
2023-04-08T16:47:16.662Z,16.20
2023-04-08T16:49:44.604Z,14.07
2023-04-08T16:52:15.051Z,16.75
2023-04-08T16:54:44.315Z,16.42
2023-04-08T16:57:12.286Z,15.00
2023-04-08T16:59:40.370Z,15.43
2023-04-08T17:02:08.855Z,15.77
2023-04-08T17:04:38.210Z,17.05
2023-04-08T17:07:06.582Z,13.90
2023-04-08T17:09:34.703Z,13.85
2023-04-08T17:12:03.131Z,16.20
2023-04-08T17:14:31.203Z,14.68
2023-04-08T17:16:59.101Z,15.27
2023-04-08T17:19:27.437Z,15.23
2023-04-08T17:21:56.726Z,20.15
2023-04-08T17:24:24.642Z,15.73
2023-04-08T17:26:52.625Z,15.60
2023-04-08T17:29:20.847Z,17.95
2023-04-08T17:31:48.833Z,17.27
2023-04-08T17:34:16.970Z,16.30
2023-04-08T17:36:45.891Z,14.80
2023-04-08T17:39:16.290Z,16.35
2023-04-08T17:41:45.813Z,18.00
2023-04-08T17:44:14.034Z,17.27
2023-04-08T17:46:42.029Z,20.83
2023-04-08T17:49:11.465Z,17.37
2023-04-08T17:51:39.724Z,18.30
2023-04-08T17:54:07.608Z,20.35
2023-04-08T17:56:36.904Z,18.13
2023-04-08T17:59:04.845Z,16.85
2023-04-08T18:01:33.018Z,16.80
2023-04-08T18:04:01.158Z,19.83
2023-04-08T18:06:29.312Z,20.33
2023-04-08T18:08:57.708Z,15.80
2023-04-08T18:11:27.201Z,15.90
2023-04-08T18:13:56.457Z,15.73
2023-04-08T18:16:24.429Z,16.43
2023-04-08T18:18:52.707Z,17.90
2023-04-08T18:21:22.027Z,14.18
2023-04-08T18:23:50.943Z,12.90
2023-04-08T18:26:19.329Z,14.40
2023-04-08T18:28:47.217Z,14.87
2023-04-08T18:31:16.566Z,13.80
2023-04-08T18:33:44.576Z,13.93
2023-04-08T18:36:13.833Z,14.80
2023-04-08T18:38:42.024Z,15.87
2023-04-08T18:41:10.076Z,14.23
2023-04-08T18:43:38.036Z,14.97
2023-04-08T18:46:05.954Z,15.53
2023-04-08T18:48:35.775Z,15.33
2023-04-08T18:51:03.769Z,16.33
2023-04-08T18:53:34.700Z,20.37
2023-04-08T18:56:02.813Z,19.93
2023-04-08T18:58:31.496Z,18.13
2023-04-08T19:00:59.470Z,14.70
2023-04-08T19:03:27.479Z,14.03
2023-04-08T19:05:56.941Z,14.73
2023-04-08T19:08:24.838Z,14.40
2023-04-08T19:10:52.939Z,14.87
2023-04-08T19:13:22.152Z,16.77
2023-04-08T19:15:50.205Z,16.20
2023-04-08T19:18:18.235Z,15.03
2023-04-08T19:20:46.916Z,14.90
2023-04-08T19:23:18.241Z,15.23
2023-04-08T19:25:47.264Z,15.77
2023-04-08T19:28:15.380Z,16.23
2023-04-08T19:30:43.288Z,14.70
2023-04-08T19:33:11.216Z,19.90
2023-04-08T19:35:39.421Z,15.97
2023-04-08T19:38:08.292Z,17.87
2023-04-08T19:40:38.067Z,16.93
2023-04-08T19:43:06.384Z,15.90
2023-04-08T19:45:34.528Z,16.67
2023-04-08T19:48:02.470Z,15.90
2023-04-08T19:50:30.401Z,17.23
2023-04-08T19:52:58.392Z,14.77
2023-04-08T19:55:26.646Z,16.27
2023-04-08T19:57:56.002Z,15.87
2023-04-08T20:00:25.004Z,16.33
2023-04-08T20:02:55.339Z,17.10
2023-04-08T20:05:23.562Z,18.23
2023-04-08T20:07:51.467Z,17.63
2023-04-08T20:10:20.515Z,17.27
2023-04-08T20:12:48.660Z,17.20
2023-04-08T20:15:24.554Z,18.30
2023-04-08T20:17:54.235Z,18.77
2023-04-08T20:20:22.771Z,20.40
2023-04-08T20:22:50.949Z,18.67
2023-04-08T20:25:19.140Z,16.33
2023-04-08T20:27:47.130Z,17.70
2023-04-08T20:30:15.162Z,17.20
2023-04-08T20:32:44.531Z,17.83
2023-04-08T20:35:13.401Z,18.97
2023-04-08T20:37:41.654Z,21.07
2023-04-08T20:40:10.612Z,18.53
2023-04-08T20:42:38.854Z,19.57
2023-04-08T20:45:08.054Z,18.27
2023-04-08T20:47:36.058Z,19.17
2023-04-08T20:50:06.474Z,19.57
2023-04-08T20:52:34.953Z,20.67
2023-04-08T20:55:02.876Z,19.40
2023-04-08T20:57:31.183Z,22.40
2023-04-08T20:59:59.293Z,20.13
2023-04-08T21:02:27.360Z,21.07
2023-04-08T21:04:55.348Z,21.07
2023-04-08T21:07:25.921Z,19.63
2023-04-08T21:09:53.994Z,20.10
2023-04-08T21:12:22.212Z,22.50
2023-04-08T21:14:50.875Z,22.60
2023-04-08T21:17:18.795Z,22.77
2023-04-08T21:19:47.000Z,21.50
2023-04-08T21:22:16.269Z,20.90
2023-04-08T21:24:45.596Z,21.63
2023-04-08T21:27:13.540Z,23.37
2023-04-08T21:29:41.646Z,22.70
2023-04-08T21:32:09.682Z,22.73
2023-04-08T21:34:37.723Z,23.83
2023-04-08T21:37:06.079Z,22.80
2023-04-08T21:39:34.093Z,22.80
2023-04-08T21:42:03.368Z,24.07
2023-04-08T21:44:31.358Z,24.50
2023-04-08T21:47:01.550Z,25.43
2023-04-08T21:49:30.689Z,25.57
2023-04-08T21:51:58.719Z,26.17
2023-04-08T21:54:26.670Z,23.20
2023-04-08T21:56:54.607Z,23.43
2023-04-08T21:59:23.924Z,23.83
2023-04-08T22:01:51.936Z,24.93
2023-04-08T22:04:20.441Z,26.27
2023-04-08T22:06:49.644Z,24.20
2023-04-08T22:09:17.775Z,24.17
2023-04-08T22:11:45.949Z,25.17
2023-04-08T22:14:15.600Z,27.80
2023-04-08T22:16:45.300Z,26.50
2023-04-08T22:19:13.287Z,28.47
2023-04-08T22:21:41.337Z,27.40
2023-04-08T22:24:09.288Z,25.40
2023-04-08T22:26:37.278Z,25.83
2023-04-08T22:29:05.728Z,26.40
2023-04-08T22:31:33.648Z,26.03
2023-04-08T22:34:02.996Z,27.03
2023-04-08T22:36:31.046Z,24.83
2023-04-08T22:38:59.011Z,24.73
2023-04-08T22:41:27.070Z,28.83
2023-04-08T22:43:55.111Z,24.47
2023-04-08T22:46:23.106Z,28.07
2023-04-08T22:48:51.358Z,27.97
2023-04-08T22:51:20.946Z,27.53
2023-04-08T22:53:48.893Z,27.63
2023-04-08T22:56:16.852Z,26.30
2023-04-08T22:58:44.774Z,25.30
2023-04-08T23:01:13.695Z,27.60
2023-04-08T23:03:42.165Z,27.30
2023-04-08T23:06:10.229Z,26.30
2023-04-08T23:08:39.794Z,25.77
2023-04-08T23:11:08.119Z,30.27
2023-04-08T23:13:36.281Z,27.90
2023-04-08T23:16:04.312Z,26.40
2023-04-08T23:18:32.315Z,29.03
2023-04-08T23:21:00.261Z,26.80
2023-04-08T23:23:28.250Z,28.97
2023-04-08T23:25:57.583Z,25.33
2023-04-08T23:28:25.555Z,27.17
2023-04-08T23:30:54.206Z,25.73
2023-04-08T23:33:22.197Z,26.93
2023-04-08T23:35:50.169Z,26.33
2023-04-08T23:38:18.105Z,26.67
2023-04-08T23:40:46.102Z,27.63
2023-04-08T23:43:15.490Z,26.23
2023-04-08T23:45:43.531Z,25.07
2023-04-08T23:48:11.603Z,28.07
2023-04-08T23:50:39.528Z,26.13
2023-04-08T23:53:07.447Z,24.93
2023-04-08T23:55:35.473Z,24.67
2023-04-08T23:58:03.352Z,26.50
